sensor_id;sensor_type;location;lat;lon;timestamp;P1;durP1;ratioP1;P2;durP2;ratioP2
29774;SDS011;16676;51.202;6.774;2022-07-29T00:02:42;5.45;;;1.90;;
29774;SDS011;16676;51.202;6.774;2022-07-29T00:06:44;4.60;;;1.60;;
29774;SDS011;16676;51.202;6.774;2022-07-29T00:10:46;3.83;;;1.42;;
29774;SDS011;16676;51.202;6.774;2022-07-29T00:14:50;5.88;;;1.55;;
29774;SDS011;16676;51.202;6.774;2022-07-29T00:18:52;6.32;;;1.45;;
29774;SDS011;16676;51.202;6.774;2022-07-29T00:22:54;4.40;;;1.60;;
29774;SDS011;16676;51.202;6.774;2022-07-29T00:26:56;3.38;;;1.55;;
29774;SDS011;16676;51.202;6.774;2022-07-29T00:30:59;7.13;;;1.42;;
29774;SDS011;16676;51.202;6.774;2022-07-29T00:35:01;6.57;;;1.95;;
29774;SDS011;16676;51.202;6.774;2022-07-29T00:39:20;6.53;;;2.00;;
29774;SDS011;16676;51.202;6.774;2022-07-29T00:43:22;5.85;;;1.55;;
29774;SDS011;16676;51.202;6.774;2022-07-29T00:47:26;4.88;;;1.38;;
29774;SDS011;16676;51.202;6.774;2022-07-29T00:51:28;3.15;;;1.60;;
29774;SDS011;16676;51.202;6.774;2022-07-29T00:55:31;6.43;;;1.83;;
29774;SDS011;16676;51.202;6.774;2022-07-29T00:59:33;4.93;;;1.42;;
29774;SDS011;16676;51.202;6.774;2022-07-29T01:03:36;3.88;;;1.35;;
29774;SDS011;16676;51.202;6.774;2022-07-29T01:07:38;5.38;;;1.50;;
29774;SDS011;16676;51.202;6.774;2022-07-29T01:11:41;3.75;;;1.38;;
29774;SDS011;16676;51.202;6.774;2022-07-29T01:15:45;5.80;;;1.40;;
29774;SDS011;16676;51.202;6.774;2022-07-29T01:19:53;9.70;;;1.30;;
29774;SDS011;16676;51.202;6.774;2022-07-29T01:24:09;4.25;;;1.55;;
29774;SDS011;16676;51.202;6.774;2022-07-29T01:28:38;3.47;;;1.27;;
29774;SDS011;16676;51.202;6.774;2022-07-29T01:33:01;4.25;;;1.45;;
29774;SDS011;16676;51.202;6.774;2022-07-29T01:37:11;3.70;;;1.30;;
29774;SDS011;16676;51.202;6.774;2022-07-29T01:45:23;5.95;;;1.35;;
29774;SDS011;16676;51.202;6.774;2022-07-29T01:49:29;3.33;;;1.50;;
29774;SDS011;16676;51.202;6.774;2022-07-29T01:53:37;3.53;;;1.27;;
29774;SDS011;16676;51.202;6.774;2022-07-29T01:57:53;3.75;;;1.40;;
29774;SDS011;16676;51.202;6.774;2022-07-29T02:01:59;6.00;;;1.70;;
29774;SDS011;16676;51.202;6.774;2022-07-29T02:06:02;3.20;;;1.27;;
29774;SDS011;16676;51.202;6.774;2022-07-29T02:10:07;4.13;;;1.33;;
29774;SDS011;16676;51.202;6.774;2022-07-29T02:14:10;7.38;;;1.25;;
29774;SDS011;16676;51.202;6.774;2022-07-29T02:18:15;7.72;;;1.30;;
29774;SDS011;16676;51.202;6.774;2022-07-29T02:22:19;10.30;;;1.42;;
29774;SDS011;16676;51.202;6.774;2022-07-29T02:26:23;3.70;;;1.20;;
29774;SDS011;16676;51.202;6.774;2022-07-29T02:30:26;6.60;;;1.48;;
29774;SDS011;16676;51.202;6.774;2022-07-29T02:34:31;4.50;;;1.40;;
29774;SDS011;16676;51.202;6.774;2022-07-29T02:38:34;7.18;;;1.35;;
29774;SDS011;16676;51.202;6.774;2022-07-29T02:42:53;5.40;;;1.83;;
29774;SDS011;16676;51.202;6.774;2022-07-29T02:46:57;4.72;;;2.20;;
29774;SDS011;16676;51.202;6.774;2022-07-29T02:51:07;4.65;;;1.73;;
29774;SDS011;16676;51.202;6.774;2022-07-29T02:55:18;5.82;;;2.10;;
29774;SDS011;16676;51.202;6.774;2022-07-29T02:59:26;4.38;;;2.22;;
29774;SDS011;16676;51.202;6.774;2022-07-29T03:03:34;4.93;;;2.05;;
29774;SDS011;16676;51.202;6.774;2022-07-29T03:07:39;8.20;;;2.00;;
29774;SDS011;16676;51.202;6.774;2022-07-29T03:11:44;6.80;;;1.90;;
29774;SDS011;16676;51.202;6.774;2022-07-29T03:15:46;5.45;;;1.48;;
29774;SDS011;16676;51.202;6.774;2022-07-29T03:19:48;7.75;;;1.88;;
29774;SDS011;16676;51.202;6.774;2022-07-29T03:23:52;7.60;;;1.73;;
29774;SDS011;16676;51.202;6.774;2022-07-29T03:27:54;7.88;;;1.52;;
29774;SDS011;16676;51.202;6.774;2022-07-29T03:31:56;5.93;;;1.50;;
29774;SDS011;16676;51.202;6.774;2022-07-29T03:35:58;5.47;;;1.20;;
29774;SDS011;16676;51.202;6.774;2022-07-29T03:40:05;3.33;;;1.10;;
29774;SDS011;16676;51.202;6.774;2022-07-29T03:44:09;6.10;;;1.38;;
29774;SDS011;16676;51.202;6.774;2022-07-29T03:48:12;4.57;;;1.27;;
29774;SDS011;16676;51.202;6.774;2022-07-29T03:52:16;7.10;;;1.40;;
29774;SDS011;16676;51.202;6.774;2022-07-29T03:56:20;3.38;;;1.25;;
29774;SDS011;16676;51.202;6.774;2022-07-29T04:00:23;3.03;;;1.08;;
29774;SDS011;16676;51.202;6.774;2022-07-29T04:04:26;2.88;;;1.17;;
29774;SDS011;16676;51.202;6.774;2022-07-29T04:08:28;7.20;;;1.35;;
29774;SDS011;16676;51.202;6.774;2022-07-29T04:12:31;4.28;;;1.55;;
29774;SDS011;16676;51.202;6.774;2022-07-29T04:16:33;4.45;;;1.15;;
29774;SDS011;16676;51.202;6.774;2022-07-29T04:20:35;6.78;;;1.35;;
29774;SDS011;16676;51.202;6.774;2022-07-29T04:24:37;7.25;;;1.40;;
29774;SDS011;16676;51.202;6.774;2022-07-29T04:28:40;7.88;;;1.70;;
29774;SDS011;16676;51.202;6.774;2022-07-29T04:32:42;10.82;;;1.90;;
29774;SDS011;16676;51.202;6.774;2022-07-29T04:36:44;10.00;;;1.77;;
29774;SDS011;16676;51.202;6.774;2022-07-29T04:40:46;8.50;;;2.20;;
29774;SDS011;16676;51.202;6.774;2022-07-29T04:44:49;5.72;;;1.73;;
29774;SDS011;16676;51.202;6.774;2022-07-29T04:48:51;9.85;;;2.10;;
29774;SDS011;16676;51.202;6.774;2022-07-29T04:52:53;2.75;;;1.63;;
29774;SDS011;16676;51.202;6.774;2022-07-29T04:56:55;4.78;;;1.52;;
29774;SDS011;16676;51.202;6.774;2022-07-29T05:00:58;6.10;;;1.73;;
29774;SDS011;16676;51.202;6.774;2022-07-29T05:05:00;6.93;;;2.00;;
29774;SDS011;16676;51.202;6.774;2022-07-29T05:09:02;6.93;;;1.42;;
29774;SDS011;16676;51.202;6.774;2022-07-29T05:13:04;5.90;;;1.58;;
29774;SDS011;16676;51.202;6.774;2022-07-29T05:17:08;5.68;;;1.80;;
29774;SDS011;16676;51.202;6.774;2022-07-29T05:21:09;8.00;;;2.13;;
29774;SDS011;16676;51.202;6.774;2022-07-29T05:25:11;5.07;;;1.75;;
29774;SDS011;16676;51.202;6.774;2022-07-29T05:29:13;5.80;;;1.80;;
29774;SDS011;16676;51.202;6.774;2022-07-29T05:33:17;4.13;;;1.70;;
29774;SDS011;16676;51.202;6.774;2022-07-29T05:37:18;13.77;;;1.77;;
29774;SDS011;16676;51.202;6.774;2022-07-29T05:41:20;6.85;;;1.60;;
29774;SDS011;16676;51.202;6.774;2022-07-29T05:45:22;6.20;;;1.85;;
29774;SDS011;16676;51.202;6.774;2022-07-29T05:49:25;5.68;;;2.00;;
29774;SDS011;16676;51.202;6.774;2022-07-29T05:53:27;4.93;;;1.90;;
29774;SDS011;16676;51.202;6.774;2022-07-29T05:57:29;7.18;;;2.05;;
29774;SDS011;16676;51.202;6.774;2022-07-29T06:01:31;6.32;;;1.75;;
29774;SDS011;16676;51.202;6.774;2022-07-29T06:05:34;4.65;;;1.77;;
29774;SDS011;16676;51.202;6.774;2022-07-29T06:09:36;6.03;;;1.98;;
29774;SDS011;16676;51.202;6.774;2022-07-29T06:13:38;13.48;;;1.90;;
29774;SDS011;16676;51.202;6.774;2022-07-29T06:17:40;6.82;;;1.90;;
29774;SDS011;16676;51.202;6.774;2022-07-29T06:21:43;5.43;;;1.73;;
29774;SDS011;16676;51.202;6.774;2022-07-29T06:25:46;7.53;;;2.15;;
29774;SDS011;16676;51.202;6.774;2022-07-29T06:29:48;5.68;;;1.92;;
29774;SDS011;16676;51.202;6.774;2022-07-29T06:33:50;6.65;;;2.00;;
29774;SDS011;16676;51.202;6.774;2022-07-29T06:37:54;3.85;;;1.50;;
29774;SDS011;16676;51.202;6.774;2022-07-29T06:41:56;6.32;;;1.70;;
29774;SDS011;16676;51.202;6.774;2022-07-29T06:45:58;7.30;;;1.85;;
29774;SDS011;16676;51.202;6.774;2022-07-29T06:50:01;9.77;;;1.90;;
29774;SDS011;16676;51.202;6.774;2022-07-29T06:54:04;7.95;;;1.75;;
29774;SDS011;16676;51.202;6.774;2022-07-29T06:58:06;5.63;;;1.70;;
29774;SDS011;16676;51.202;6.774;2022-07-29T07:02:09;7.25;;;1.75;;
29774;SDS011;16676;51.202;6.774;2022-07-29T07:06:11;5.80;;;1.63;;
29774;SDS011;16676;51.202;6.774;2022-07-29T07:10:14;7.18;;;2.00;;
29774;SDS011;16676;51.202;6.774;2022-07-29T07:14:16;5.55;;;1.70;;
29774;SDS011;16676;51.202;6.774;2022-07-29T07:18:18;5.70;;;1.75;;
29774;SDS011;16676;51.202;6.774;2022-07-29T07:22:20;4.57;;;1.85;;
29774;SDS011;16676;51.202;6.774;2022-07-29T07:26:23;3.90;;;1.77;;
29774;SDS011;16676;51.202;6.774;2022-07-29T07:30:25;6.50;;;1.90;;
29774;SDS011;16676;51.202;6.774;2022-07-29T07:34:28;5.05;;;1.95;;
29774;SDS011;16676;51.202;6.774;2022-07-29T07:38:30;6.35;;;1.80;;
29774;SDS011;16676;51.202;6.774;2022-07-29T07:42:33;4.88;;;1.83;;
29774;SDS011;16676;51.202;6.774;2022-07-29T07:46:35;5.43;;;1.80;;
29774;SDS011;16676;51.202;6.774;2022-07-29T07:50:38;4.50;;;1.70;;
29774;SDS011;16676;51.202;6.774;2022-07-29T07:54:39;4.50;;;1.88;;
29774;SDS011;16676;51.202;6.774;2022-07-29T07:58:44;5.40;;;1.88;;
29774;SDS011;16676;51.202;6.774;2022-07-29T08:02:46;6.28;;;2.00;;
29774;SDS011;16676;51.202;6.774;2022-07-29T08:06:48;6.03;;;2.20;;
29774;SDS011;16676;51.202;6.774;2022-07-29T08:10:50;5.18;;;2.50;;
29774;SDS011;16676;51.202;6.774;2022-07-29T08:14:58;5.95;;;2.25;;
29774;SDS011;16676;51.202;6.774;2022-07-29T08:18:59;4.25;;;2.45;;
29774;SDS011;16676;51.202;6.774;2022-07-29T08:23:01;4.70;;;2.08;;
29774;SDS011;16676;51.202;6.774;2022-07-29T08:27:04;4.68;;;2.15;;
29774;SDS011;16676;51.202;6.774;2022-07-29T08:31:07;5.45;;;2.10;;
29774;SDS011;16676;51.202;6.774;2022-07-29T08:35:09;5.50;;;2.25;;
29774;SDS011;16676;51.202;6.774;2022-07-29T08:39:11;5.10;;;2.38;;
29774;SDS011;16676;51.202;6.774;2022-07-29T08:43:13;10.98;;;2.58;;
29774;SDS011;16676;51.202;6.774;2022-07-29T08:47:16;9.38;;;2.45;;
29774;SDS011;16676;51.202;6.774;2022-07-29T08:51:19;4.35;;;2.30;;
29774;SDS011;16676;51.202;6.774;2022-07-29T08:55:22;5.60;;;2.20;;
29774;SDS011;16676;51.202;6.774;2022-07-29T08:59:24;4.35;;;1.83;;
29774;SDS011;16676;51.202;6.774;2022-07-29T09:03:31;6.13;;;2.05;;
29774;SDS011;16676;51.202;6.774;2022-07-29T09:07:34;6.75;;;2.72;;
29774;SDS011;16676;51.202;6.774;2022-07-29T09:11:37;8.30;;;2.03;;
29774;SDS011;16676;51.202;6.774;2022-07-29T09:15:38;5.07;;;2.25;;
29774;SDS011;16676;51.202;6.774;2022-07-29T09:19:42;8.52;;;2.08;;
29774;SDS011;16676;51.202;6.774;2022-07-29T09:23:59;8.13;;;2.25;;
29774;SDS011;16676;51.202;6.774;2022-07-29T09:28:05;3.40;;;1.90;;
29774;SDS011;16676;51.202;6.774;2022-07-29T09:32:09;8.65;;;2.13;;
29774;SDS011;16676;51.202;6.774;2022-07-29T09:36:12;5.20;;;2.20;;
29774;SDS011;16676;51.202;6.774;2022-07-29T09:40:15;9.05;;;2.13;;
29774;SDS011;16676;51.202;6.774;2022-07-29T09:44:18;7.28;;;2.00;;
29774;SDS011;16676;51.202;6.774;2022-07-29T09:48:21;6.72;;;2.50;;
29774;SDS011;16676;51.202;6.774;2022-07-29T09:52:26;5.95;;;2.22;;
29774;SDS011;16676;51.202;6.774;2022-07-29T09:56:39;6.38;;;2.35;;
29774;SDS011;16676;51.202;6.774;2022-07-29T10:00:42;6.50;;;1.95;;
29774;SDS011;16676;51.202;6.774;2022-07-29T10:04:44;4.28;;;2.13;;
29774;SDS011;16676;51.202;6.774;2022-07-29T10:08:47;6.45;;;2.30;;
29774;SDS011;16676;51.202;6.774;2022-07-29T10:12:51;9.63;;;2.50;;
29774;SDS011;16676;51.202;6.774;2022-07-29T10:16:54;5.32;;;2.17;;
29774;SDS011;16676;51.202;6.774;2022-07-29T10:20:56;6.50;;;2.42;;
29774;SDS011;16676;51.202;6.774;2022-07-29T10:25:02;5.65;;;2.20;;
29774;SDS011;16676;51.202;6.774;2022-07-29T10:29:04;5.25;;;1.63;;
29774;SDS011;16676;51.202;6.774;2022-07-29T10:33:18;7.43;;;2.15;;
29774;SDS011;16676;51.202;6.774;2022-07-29T10:37:33;5.00;;;1.92;;
29774;SDS011;16676;51.202;6.774;2022-07-29T10:41:51;7.07;;;2.10;;
29774;SDS011;16676;51.202;6.774;2022-07-29T10:46:03;5.43;;;2.00;;
29774;SDS011;16676;51.202;6.774;2022-07-29T10:50:06;5.35;;;1.65;;
29774;SDS011;16676;51.202;6.774;2022-07-29T10:54:08;5.03;;;2.20;;
29774;SDS011;16676;51.202;6.774;2022-07-29T10:58:12;3.85;;;1.75;;
29774;SDS011;16676;51.202;6.774;2022-07-29T11:15:53;5.18;;;1.40;;
29774;SDS011;16676;51.202;6.774;2022-07-29T11:24:31;5.40;;;1.63;;
29774;SDS011;16676;51.202;6.774;2022-07-29T11:28:34;4.60;;;1.50;;
29774;SDS011;16676;51.202;6.774;2022-07-29T11:32:42;3.55;;;1.67;;
29774;SDS011;16676;51.202;6.774;2022-07-29T11:41:21;3.80;;;1.70;;
29774;SDS011;16676;51.202;6.774;2022-07-29T11:45:25;3.78;;;1.45;;
29774;SDS011;16676;51.202;6.774;2022-07-29T11:49:33;10.05;;;2.20;;
29774;SDS011;16676;51.202;6.774;2022-07-29T11:53:35;7.07;;;2.30;;
29774;SDS011;16676;51.202;6.774;2022-07-29T11:57:44;7.53;;;2.25;;
29774;SDS011;16676;51.202;6.774;2022-07-29T12:01:53;8.23;;;2.78;;
29774;SDS011;16676;51.202;6.774;2022-07-29T12:05:57;10.70;;;3.40;;
29774;SDS011;16676;51.202;6.774;2022-07-29T12:09:59;7.90;;;3.17;;
29774;SDS011;16676;51.202;6.774;2022-07-29T12:14:02;12.52;;;4.20;;
29774;SDS011;16676;51.202;6.774;2022-07-29T12:18:10;15.27;;;4.40;;
29774;SDS011;16676;51.202;6.774;2022-07-29T12:22:16;12.10;;;4.65;;
29774;SDS011;16676;51.202;6.774;2022-07-29T12:26:27;11.48;;;4.40;;
29774;SDS011;16676;51.202;6.774;2022-07-29T12:30:35;15.68;;;4.05;;
29774;SDS011;16676;51.202;6.774;2022-07-29T12:34:39;13.80;;;4.47;;
29774;SDS011;16676;51.202;6.774;2022-07-29T12:38:43;14.05;;;4.53;;
29774;SDS011;16676;51.202;6.774;2022-07-29T12:47:06;11.35;;;4.63;;
29774;SDS011;16676;51.202;6.774;2022-07-29T12:51:09;11.68;;;4.65;;
29774;SDS011;16676;51.202;6.774;2022-07-29T12:55:15;15.65;;;5.95;;
29774;SDS011;16676;51.202;6.774;2022-07-29T12:59:18;11.40;;;4.55;;
29774;SDS011;16676;51.202;6.774;2022-07-29T13:03:21;11.88;;;4.18;;
29774;SDS011;16676;51.202;6.774;2022-07-29T13:07:23;17.88;;;4.80;;
29774;SDS011;16676;51.202;6.774;2022-07-29T13:11:29;13.05;;;3.97;;
29774;SDS011;16676;51.202;6.774;2022-07-29T13:15:31;10.45;;;3.72;;
29774;SDS011;16676;51.202;6.774;2022-07-29T13:19:37;9.48;;;3.20;;
29774;SDS011;16676;51.202;6.774;2022-07-29T13:23:40;8.85;;;3.05;;
29774;SDS011;16676;51.202;6.774;2022-07-29T13:27:44;11.07;;;3.35;;
29774;SDS011;16676;51.202;6.774;2022-07-29T13:31:46;7.63;;;3.30;;
29774;SDS011;16676;51.202;6.774;2022-07-29T13:35:48;10.95;;;3.63;;
29774;SDS011;16676;51.202;6.774;2022-07-29T13:39:50;10.30;;;3.15;;
29774;SDS011;16676;51.202;6.774;2022-07-29T13:43:53;8.05;;;2.67;;
29774;SDS011;16676;51.202;6.774;2022-07-29T13:47:55;12.00;;;3.42;;
29774;SDS011;16676;51.202;6.774;2022-07-29T13:51:57;9.05;;;3.47;;
29774;SDS011;16676;51.202;6.774;2022-07-29T13:55:59;9.43;;;2.85;;
29774;SDS011;16676;51.202;6.774;2022-07-29T14:00:03;9.38;;;2.97;;
29774;SDS011;16676;51.202;6.774;2022-07-29T14:04:05;13.38;;;3.70;;
29774;SDS011;16676;51.202;6.774;2022-07-29T14:08:07;11.85;;;4.00;;
29774;SDS011;16676;51.202;6.774;2022-07-29T14:12:09;11.27;;;3.53;;
29774;SDS011;16676;51.202;6.774;2022-07-29T14:16:13;11.23;;;3.58;;
29774;SDS011;16676;51.202;6.774;2022-07-29T14:20:15;8.75;;;3.17;;
29774;SDS011;16676;51.202;6.774;2022-07-29T14:24:17;12.93;;;3.30;;
29774;SDS011;16676;51.202;6.774;2022-07-29T14:28:19;14.55;;;3.17;;
29774;SDS011;16676;51.202;6.774;2022-07-29T14:32:22;10.68;;;3.22;;
29774;SDS011;16676;51.202;6.774;2022-07-29T14:36:24;8.65;;;2.63;;
29774;SDS011;16676;51.202;6.774;2022-07-29T14:40:27;19.40;;;3.45;;
29774;SDS011;16676;51.202;6.774;2022-07-29T14:44:29;19.50;;;3.92;;
29774;SDS011;16676;51.202;6.774;2022-07-29T14:48:33;14.68;;;3.80;;
29774;SDS011;16676;51.202;6.774;2022-07-29T14:52:35;13.30;;;3.40;;
29774;SDS011;16676;51.202;6.774;2022-07-29T14:56:37;13.40;;;3.30;;
29774;SDS011;16676;51.202;6.774;2022-07-29T15:00:39;12.10;;;3.65;;
29774;SDS011;16676;51.202;6.774;2022-07-29T15:04:42;5.00;;;2.65;;
29774;SDS011;16676;51.202;6.774;2022-07-29T15:08:45;12.88;;;2.85;;
29774;SDS011;16676;51.202;6.774;2022-07-29T15:12:47;7.85;;;2.60;;
29774;SDS011;16676;51.202;6.774;2022-07-29T15:16:49;6.78;;;2.70;;
29774;SDS011;16676;51.202;6.774;2022-07-29T15:20:52;7.43;;;2.50;;
29774;SDS011;16676;51.202;6.774;2022-07-29T15:24:54;5.18;;;2.42;;
29774;SDS011;16676;51.202;6.774;2022-07-29T15:28:56;10.43;;;2.38;;
29774;SDS011;16676;51.202;6.774;2022-07-29T15:32:58;8.23;;;2.25;;
29774;SDS011;16676;51.202;6.774;2022-07-29T15:37:01;5.75;;;2.58;;
29774;SDS011;16676;51.202;6.774;2022-07-29T15:41:03;6.30;;;2.00;;
29774;SDS011;16676;51.202;6.774;2022-07-29T15:45:06;5.72;;;2.30;;
29774;SDS011;16676;51.202;6.774;2022-07-29T15:49:08;3.13;;;1.90;;
29774;SDS011;16676;51.202;6.774;2022-07-29T15:53:11;7.03;;;2.30;;
29774;SDS011;16676;51.202;6.774;2022-07-29T15:57:13;5.18;;;2.28;;
29774;SDS011;16676;51.202;6.774;2022-07-29T16:01:15;6.35;;;2.30;;
29774;SDS011;16676;51.202;6.774;2022-07-29T16:05:17;4.93;;;2.20;;
29774;SDS011;16676;51.202;6.774;2022-07-29T16:09:20;8.38;;;2.20;;
29774;SDS011;16676;51.202;6.774;2022-07-29T16:13:22;4.05;;;1.95;;
29774;SDS011;16676;51.202;6.774;2022-07-29T16:17:24;6.32;;;2.15;;
29774;SDS011;16676;51.202;6.774;2022-07-29T16:21:26;7.55;;;1.77;;
29774;SDS011;16676;51.202;6.774;2022-07-29T16:25:31;4.63;;;1.77;;
29774;SDS011;16676;51.202;6.774;2022-07-29T16:29:33;5.75;;;2.22;;
29774;SDS011;16676;51.202;6.774;2022-07-29T16:33:36;6.35;;;2.25;;
29774;SDS011;16676;51.202;6.774;2022-07-29T16:37:38;3.67;;;2.10;;
29774;SDS011;16676;51.202;6.774;2022-07-29T16:41:41;5.88;;;2.05;;
29774;SDS011;16676;51.202;6.774;2022-07-29T16:45:43;5.72;;;1.92;;
29774;SDS011;16676;51.202;6.774;2022-07-29T16:49:46;4.63;;;2.20;;
29774;SDS011;16676;51.202;6.774;2022-07-29T16:53:47;3.45;;;1.48;;
29774;SDS011;16676;51.202;6.774;2022-07-29T16:57:51;5.13;;;1.92;;
29774;SDS011;16676;51.202;6.774;2022-07-29T17:01:52;2.97;;;1.75;;
29774;SDS011;16676;51.202;6.774;2022-07-29T17:05:54;3.55;;;2.08;;
29774;SDS011;16676;51.202;6.774;2022-07-29T17:09:56;3.28;;;1.73;;
29774;SDS011;16676;51.202;6.774;2022-07-29T17:14:00;7.38;;;1.80;;
29774;SDS011;16676;51.202;6.774;2022-07-29T17:18:02;5.65;;;2.10;;
29774;SDS011;16676;51.202;6.774;2022-07-29T17:22:04;4.13;;;1.60;;
29774;SDS011;16676;51.202;6.774;2022-07-29T17:26:06;4.28;;;1.65;;
29774;SDS011;16676;51.202;6.774;2022-07-29T17:30:10;3.75;;;2.00;;
29774;SDS011;16676;51.202;6.774;2022-07-29T17:34:12;2.35;;;1.52;;
29774;SDS011;16676;51.202;6.774;2022-07-29T17:38:14;4.93;;;1.50;;
29774;SDS011;16676;51.202;6.774;2022-07-29T17:42:16;8.60;;;1.92;;
29774;SDS011;16676;51.202;6.774;2022-07-29T17:46:19;8.40;;;2.10;;
29774;SDS011;16676;51.202;6.774;2022-07-29T17:50:23;3.97;;;1.73;;
29774;SDS011;16676;51.202;6.774;2022-07-29T17:54:25;2.78;;;1.58;;
29774;SDS011;16676;51.202;6.774;2022-07-29T17:58:27;3.05;;;1.70;;
29774;SDS011;16676;51.202;6.774;2022-07-29T18:02:30;3.88;;;1.80;;
29774;SDS011;16676;51.202;6.774;2022-07-29T18:06:32;4.70;;;1.90;;
29774;SDS011;16676;51.202;6.774;2022-07-29T18:10:34;5.50;;;1.83;;
29774;SDS011;16676;51.202;6.774;2022-07-29T18:14:37;5.05;;;2.00;;
29774;SDS011;16676;51.202;6.774;2022-07-29T18:18:40;4.38;;;1.90;;
29774;SDS011;16676;51.202;6.774;2022-07-29T18:22:43;4.57;;;1.95;;
29774;SDS011;16676;51.202;6.774;2022-07-29T18:26:45;3.53;;;1.60;;
29774;SDS011;16676;51.202;6.774;2022-07-29T18:30:47;2.78;;;1.67;;
29774;SDS011;16676;51.202;6.774;2022-07-29T18:34:50;4.03;;;1.90;;
29774;SDS011;16676;51.202;6.774;2022-07-29T18:38:52;7.35;;;2.20;;
29774;SDS011;16676;51.202;6.774;2022-07-29T18:42:54;5.38;;;2.00;;
29774;SDS011;16676;51.202;6.774;2022-07-29T18:46:56;4.43;;;1.90;;
29774;SDS011;16676;51.202;6.774;2022-07-29T18:51:00;4.53;;;2.00;;
29774;SDS011;16676;51.202;6.774;2022-07-29T18:55:02;5.80;;;2.03;;
29774;SDS011;16676;51.202;6.774;2022-07-29T18:59:04;5.43;;;1.92;;
29774;SDS011;16676;51.202;6.774;2022-07-29T19:03:07;5.50;;;1.92;;
29774;SDS011;16676;51.202;6.774;2022-07-29T19:07:10;5.57;;;1.98;;
29774;SDS011;16676;51.202;6.774;2022-07-29T19:11:12;3.15;;;1.90;;
29774;SDS011;16676;51.202;6.774;2022-07-29T19:15:14;4.15;;;2.10;;
29774;SDS011;16676;51.202;6.774;2022-07-29T19:19:16;4.32;;;2.20;;
29774;SDS011;16676;51.202;6.774;2022-07-29T19:23:19;4.82;;;2.08;;
29774;SDS011;16676;51.202;6.774;2022-07-29T19:27:21;4.93;;;2.30;;
29774;SDS011;16676;51.202;6.774;2022-07-29T19:31:23;7.43;;;2.55;;
29774;SDS011;16676;51.202;6.774;2022-07-29T19:35:25;4.43;;;1.90;;
29774;SDS011;16676;51.202;6.774;2022-07-29T19:39:32;6.20;;;2.13;;
29774;SDS011;16676;51.202;6.774;2022-07-29T19:43:34;4.88;;;2.40;;
29774;SDS011;16676;51.202;6.774;2022-07-29T19:47:36;5.82;;;2.53;;
29774;SDS011;16676;51.202;6.774;2022-07-29T19:51:38;4.95;;;2.65;;
29774;SDS011;16676;51.202;6.774;2022-07-29T19:55:42;9.60;;;2.10;;
29774;SDS011;16676;51.202;6.774;2022-07-29T19:59:44;8.85;;;2.90;;
29774;SDS011;16676;51.202;6.774;2022-07-29T20:03:46;4.30;;;2.58;;
29774;SDS011;16676;51.202;6.774;2022-07-29T20:07:47;6.70;;;2.38;;
29774;SDS011;16676;51.202;6.774;2022-07-29T20:11:51;5.25;;;2.63;;
29774;SDS011;16676;51.202;6.774;2022-07-29T20:15:52;6.50;;;2.65;;
29774;SDS011;16676;51.202;6.774;2022-07-29T20:19:54;4.82;;;2.65;;
29774;SDS011;16676;51.202;6.774;2022-07-29T20:23:59;5.72;;;2.60;;
29774;SDS011;16676;51.202;6.774;2022-07-29T20:28:03;5.10;;;2.85;;
29774;SDS011;16676;51.202;6.774;2022-07-29T20:32:05;9.13;;;3.05;;
29774;SDS011;16676;51.202;6.774;2022-07-29T20:36:07;6.80;;;3.28;;
29774;SDS011;16676;51.202;6.774;2022-07-29T20:40:09;7.13;;;3.13;;
29774;SDS011;16676;51.202;6.774;2022-07-29T20:44:13;4.97;;;2.92;;
29774;SDS011;16676;51.202;6.774;2022-07-29T20:48:15;7.80;;;2.95;;
29774;SDS011;16676;51.202;6.774;2022-07-29T20:52:17;6.50;;;3.83;;
29774;SDS011;16676;51.202;6.774;2022-07-29T20:56:19;6.50;;;3.28;;
29774;SDS011;16676;51.202;6.774;2022-07-29T21:00:22;8.63;;;3.80;;
29774;SDS011;16676;51.202;6.774;2022-07-29T21:04:24;5.82;;;3.70;;
29774;SDS011;16676;51.202;6.774;2022-07-29T21:08:27;6.43;;;3.33;;
29774;SDS011;16676;51.202;6.774;2022-07-29T21:12:28;7.22;;;4.05;;
29774;SDS011;16676;51.202;6.774;2022-07-29T21:16:32;7.35;;;3.58;;
29774;SDS011;16676;51.202;6.774;2022-07-29T21:20:34;5.38;;;3.63;;
29774;SDS011;16676;51.202;6.774;2022-07-29T21:24:35;7.13;;;3.75;;
29774;SDS011;16676;51.202;6.774;2022-07-29T21:28:37;6.72;;;3.80;;
29774;SDS011;16676;51.202;6.774;2022-07-29T21:32:41;7.20;;;4.45;;
29774;SDS011;16676;51.202;6.774;2022-07-29T21:36:43;7.30;;;4.03;;
29774;SDS011;16676;51.202;6.774;2022-07-29T21:40:47;7.45;;;3.90;;
29774;SDS011;16676;51.202;6.774;2022-07-29T21:44:50;6.57;;;3.58;;
29774;SDS011;16676;51.202;6.774;2022-07-29T21:48:54;5.70;;;3.15;;
29774;SDS011;16676;51.202;6.774;2022-07-29T21:52:55;6.25;;;3.53;;
29774;SDS011;16676;51.202;6.774;2022-07-29T21:56:57;5.57;;;3.20;;
29774;SDS011;16676;51.202;6.774;2022-07-29T22:00:59;7.47;;;3.95;;
29774;SDS011;16676;51.202;6.774;2022-07-29T22:05:03;8.82;;;3.90;;
29774;SDS011;16676;51.202;6.774;2022-07-29T22:09:05;7.15;;;3.08;;
29774;SDS011;16676;51.202;6.774;2022-07-29T22:13:07;5.72;;;3.00;;
29774;SDS011;16676;51.202;6.774;2022-07-29T22:17:09;5.65;;;3.15;;
29774;SDS011;16676;51.202;6.774;2022-07-29T22:21:12;5.72;;;3.15;;
29774;SDS011;16676;51.202;6.774;2022-07-29T22:25:14;5.85;;;3.00;;
29774;SDS011;16676;51.202;6.774;2022-07-29T22:29:16;4.50;;;2.80;;
29774;SDS011;16676;51.202;6.774;2022-07-29T22:33:18;5.95;;;3.20;;
29774;SDS011;16676;51.202;6.774;2022-07-29T22:37:22;7.20;;;2.92;;
29774;SDS011;16676;51.202;6.774;2022-07-29T22:41:24;3.88;;;2.65;;
29774;SDS011;16676;51.202;6.774;2022-07-29T22:45:26;5.65;;;2.92;;
29774;SDS011;16676;51.202;6.774;2022-07-29T22:49:28;4.85;;;2.78;;
29774;SDS011;16676;51.202;6.774;2022-07-29T22:53:31;7.25;;;3.47;;
29774;SDS011;16676;51.202;6.774;2022-07-29T22:57:33;6.13;;;3.25;;
29774;SDS011;16676;51.202;6.774;2022-07-29T23:01:35;5.47;;;2.92;;
29774;SDS011;16676;51.202;6.774;2022-07-29T23:05:37;6.43;;;2.70;;
29774;SDS011;16676;51.202;6.774;2022-07-29T23:09:40;5.57;;;2.90;;
29774;SDS011;16676;51.202;6.774;2022-07-29T23:13:42;8.55;;;3.50;;
29774;SDS011;16676;51.202;6.774;2022-07-29T23:17:44;5.00;;;2.53;;
29774;SDS011;16676;51.202;6.774;2022-07-29T23:21:46;5.63;;;2.80;;
29774;SDS011;16676;51.202;6.774;2022-07-29T23:25:49;8.30;;;2.75;;
29774;SDS011;16676;51.202;6.774;2022-07-29T23:29:51;5.90;;;2.72;;
29774;SDS011;16676;51.202;6.774;2022-07-29T23:33:53;5.28;;;2.60;;
29774;SDS011;16676;51.202;6.774;2022-07-29T23:37:55;5.18;;;2.42;;
29774;SDS011;16676;51.202;6.774;2022-07-29T23:41:58;4.40;;;2.47;;
29774;SDS011;16676;51.202;6.774;2022-07-29T23:46:00;7.38;;;2.65;;
29774;SDS011;16676;51.202;6.774;2022-07-29T23:50:02;6.38;;;2.63;;
29774;SDS011;16676;51.202;6.774;2022-07-29T23:54:04;6.53;;;2.70;;
29774;SDS011;16676;51.202;6.774;2022-07-29T23:58:08;4.40;;;2.53;;
